SAEZ/EZE METAR and TAF weather

Enter ICAO airport designator
Station Type Date Time Source
SAEZ METAR 2021/05/15 02:00 UTC NOAA

SAEZ 150200Z 10002KT 3000 BR NSC 04/03 Q1020 NOSIG


Station Type Date Time Source
SAEZ Decoded METAR 2021/05/15 02:00 UTC NOAA

Ezeiza Aerodrome, Argentina (SAEZ) 34-49S 058-32W 20M
May 14, 2021 - 10:00 PM EDT / 2021.05.15 0200 UTC
Wind: from the E (100 degrees) at 2 MPH (2 KT):0
Visibility: 1 mile(s):0
Weather: mist
Temperature: 39 F (4 C)
Dew Point: 37 F (3 C)
Relative Humidity: 93%
Pressure (altimeter): 30.12 in. Hg (1020 hPa)
ob: SAEZ 150200Z 10002KT 3000 BR NSC 04/03 Q1020 NOSIG
cycle: 2

Station Type Date Time Source
SAEZ TAF 2021/05/15 03:30 UTC NOAA

TAF
AMD SAEZ 150230Z 1503/1524 VRB02KT 3000 BR TX21/1518Z TN03/1510Z
BECMG 1504/1506 2000 BR
TEMPO 1506/1511 0800 FG
BECMG 1512/1514 9999 NSW SCT020
BECMG 1514/1516 36005KT CAVOK

Example: see airport list